Ashland, Nebraska
Current Conditions -  °F | °C
As of 12:35 AM on Thursday 23 Oct 2014 (Local Time) from KMLE Reporting Station
Broken Clouds Broken Clouds  
Wind Chill: 63°   Ceiling: 7000
Heat Index: 63°   Visibility: 10mi
Dew Point: 60°   Wind: 7mph
Humidity: 90%   Direction: 160°SSE
Pressure: 30.03"   Gusts: NA
Location:  41.04°N, 96.37°W
Report Text: KMLE 230535Z AUTO 16006KT 10SM SCT017 SCT046 BKN070 17/16 A3003 RMK AO2 T01710155
Loading
Personal Weather Stations






























Interactive Weather Map
Tropical Storm Tracking
New forecast layout! Learn more

10-Day Weather Forecast

Advertisements
Track Severe Weather on mobile